createdAt,value
2019-01-09T00:00:58.868Z,1013.16
2019-01-09T00:01:58.902Z,1013.17
2019-01-09T00:02:58.915Z,1013.16
2019-01-09T00:03:58.763Z,1013.12
2019-01-09T00:04:58.835Z,1013.15
2019-01-09T00:05:58.701Z,1013.16
2019-01-09T00:06:58.831Z,1013.13
2019-01-09T00:07:58.647Z,1013.17
2019-01-09T00:08:58.611Z,1013.15
2019-01-09T00:09:58.752Z,1013.08
2019-01-09T00:10:58.552Z,1013.11
2019-01-09T00:11:58.662Z,1013.09
2019-01-09T00:12:58.506Z,1013.08
2019-01-09T00:13:58.479Z,1013.14
2019-01-09T00:14:58.444Z,1013.13
2019-01-09T00:15:58.492Z,1013.04
2019-01-09T00:16:58.383Z,1013.03
2019-01-09T00:17:58.500Z,1013.07
2019-01-09T00:18:58.321Z,1013.06
2019-01-09T00:19:58.292Z,1013.10
2019-01-09T00:20:58.422Z,1013.08
2019-01-09T00:21:58.246Z,1013.07
2019-01-09T00:22:58.333Z,1013.03
2019-01-09T00:23:58.172Z,1013.07
2019-01-09T00:24:58.145Z,1013.06
2019-01-09T00:25:58.255Z,1013.03
2019-01-09T00:26:58.083Z,1013.04
2019-01-09T00:27:58.164Z,1013.05
2019-01-09T00:28:58.033Z,1013.00
2019-01-09T00:29:58.007Z,1013.00
2019-01-09T00:30:58.006Z,1013.02
2019-01-09T00:31:58.094Z,1013.00
2019-01-09T00:32:57.902Z,1013.06
2019-01-09T00:33:58.002Z,1012.96
2019-01-09T00:34:57.844Z,1012.95
2019-01-09T00:35:57.813Z,1012.96
2019-01-09T00:36:57.925Z,1013.00
2019-01-09T00:37:57.761Z,1012.95
2019-01-09T00:38:57.834Z,1013.01
2019-01-09T00:39:57.703Z,1013.03
2019-01-09T00:40:57.663Z,1012.90
2019-01-09T00:41:57.641Z,1012.97
2019-01-09T00:42:57.790Z,1012.96
2019-01-09T00:43:57.582Z,1012.97
2019-01-09T00:44:57.676Z,1012.93
2019-01-09T00:45:57.522Z,1012.92
2019-01-09T00:46:57.492Z,1012.91
2019-01-09T00:47:57.605Z,1013.05
2019-01-09T00:48:57.430Z,1012.94
2019-01-09T00:49:57.607Z,1012.89
2019-01-09T00:50:57.373Z,1012.88
2019-01-09T00:51:57.339Z,1012.97
2019-01-09T00:52:57.313Z,1012.97
2019-01-09T00:53:57.424Z,1012.90
2019-01-09T00:54:57.262Z,1013.00
2019-01-09T00:55:57.342Z,1012.96
2019-01-09T00:56:57.203Z,1012.99
2019-01-09T00:57:57.355Z,1012.98
2019-01-09T00:58:57.139Z,1013.01
2019-01-09T00:59:57.266Z,1012.99
2019-01-09T01:00:57.073Z,1012.95
2019-01-09T01:01:57.212Z,1013.01
2019-01-09T01:02:57.011Z,1013.00
2019-01-09T01:03:57.211Z,1013.10
2019-01-09T01:04:56.951Z,1012.96
2019-01-09T01:05:57.104Z,1012.94
2019-01-09T01:06:56.893Z,1013.02
2019-01-09T01:07:56.863Z,1013.00
2019-01-09T01:08:56.836Z,1012.98
2019-01-09T01:09:57.024Z,1012.98
2019-01-09T01:10:56.771Z,1013.01
2019-01-09T01:11:56.954Z,1012.96
2019-01-09T01:12:56.725Z,1012.92
2019-01-09T01:13:56.695Z,1012.92
2019-01-09T01:14:56.756Z,1012.90
2019-01-09T01:15:56.627Z,1012.84
2019-01-09T01:16:56.662Z,1012.90
2019-01-09T01:17:56.565Z,1012.93
2019-01-09T01:18:56.532Z,1012.91
2019-01-09T01:19:56.505Z,1012.90
2019-01-09T01:20:56.596Z,1012.96
2019-01-09T01:21:56.443Z,1012.94
2019-01-09T01:22:56.503Z,1013.13
2019-01-09T01:23:56.386Z,1013.11
2019-01-09T01:24:56.412Z,1013.10
2019-01-09T01:25:56.333Z,1013.00
2019-01-09T01:26:56.332Z,1013.02
2019-01-09T01:27:56.262Z,1013.09
2019-01-09T01:28:56.342Z,1013.10
2019-01-09T01:29:56.257Z,1013.03
2019-01-09T01:30:56.173Z,1013.06
2019-01-09T01:31:56.261Z,1013.11
2019-01-09T01:32:56.126Z,1013.11
2019-01-09T01:33:56.182Z,1013.20
2019-01-09T01:34:56.054Z,1013.08
2019-01-09T01:35:56.083Z,1013.17
2019-01-09T01:36:55.991Z,1013.14
2019-01-09T01:37:56.113Z,1013.11
2019-01-09T01:38:55.941Z,1013.17
2019-01-09T01:39:56.013Z,1013.17
2019-01-09T01:40:55.882Z,1013.16
2019-01-09T01:41:55.923Z,1013.10
2019-01-09T01:42:55.811Z,1013.04
2019-01-09T01:43:55.833Z,1013.14
2019-01-09T01:44:55.752Z,1013.00
2019-01-09T01:45:55.732Z,1013.01
2019-01-09T01:46:55.703Z,1013.04
2019-01-09T01:47:55.764Z,1013.05
2019-01-09T01:48:55.644Z,1013.05
2019-01-09T01:49:55.671Z,1013.04
2019-01-09T01:50:55.574Z,1013.13
2019-01-09T01:51:55.552Z,1013.06
2019-01-09T01:52:55.594Z,1013.16
2019-01-09T01:53:55.504Z,1013.10
2019-01-09T01:54:55.603Z,1013.15
2019-01-09T01:55:55.432Z,1013.16
2019-01-09T01:56:55.392Z,1013.15
2019-01-09T01:57:55.377Z,1013.14
2019-01-09T01:58:55.422Z,1013.15
2019-01-09T01:59:55.310Z,1013.15
2019-01-09T02:00:55.343Z,1013.14
2019-01-09T02:01:55.243Z,1013.13
2019-01-09T02:02:55.218Z,1013.19
2019-01-09T02:03:55.265Z,1013.24
2019-01-09T02:04:55.153Z,1013.24
2019-01-09T02:06:03.471Z,1013.20
2019-01-09T02:06:55.102Z,1013.27
2019-01-09T02:07:55.074Z,1013.25
2019-01-09T02:08:55.192Z,1013.28
2019-01-09T02:09:55.029Z,1013.34
2019-01-09T02:10:55.101Z,1013.32
2019-01-09T02:11:54.942Z,1013.43
2019-01-09T02:12:54.925Z,1013.35
2019-01-09T02:13:54.883Z,1013.34
2019-01-09T02:14:54.932Z,1013.42
2019-01-09T02:15:54.824Z,1013.35
2019-01-09T02:16:54.946Z,1013.35
2019-01-09T02:17:54.761Z,1013.37
2019-01-09T02:18:54.736Z,1013.43
2019-01-09T02:19:54.865Z,1013.46
2019-01-09T02:20:54.684Z,1013.42
2019-01-09T02:21:54.773Z,1013.42
2019-01-09T02:22:54.615Z,1013.36
2019-01-09T02:23:54.582Z,1013.42
2019-01-09T02:24:54.557Z,1013.45
2019-01-09T02:25:54.704Z,1013.38
2019-01-09T02:26:54.492Z,1013.47
2019-01-09T02:27:54.612Z,1013.38
2019-01-09T02:28:54.433Z,1013.35
2019-01-09T02:29:54.522Z,1013.40
2019-01-09T02:30:54.374Z,1013.38
2019-01-09T02:31:54.445Z,1013.36
2019-01-09T02:32:54.312Z,1013.46
2019-01-09T02:33:54.452Z,1013.45
2019-01-09T02:34:54.253Z,1013.40
2019-01-09T02:35:54.221Z,1013.49
2019-01-09T02:36:54.373Z,1013.53
2019-01-09T02:37:54.163Z,1013.45
2019-01-09T02:38:54.287Z,1013.40
2019-01-09T02:39:54.104Z,1013.39
2019-01-09T02:40:54.196Z,1013.39
2019-01-09T02:41:54.055Z,1013.54
2019-01-09T02:42:54.204Z,1013.48
2019-01-09T02:43:53.988Z,1013.57
2019-01-09T02:44:54.126Z,1013.49
2019-01-09T02:45:53.930Z,1013.49
2019-01-09T02:46:54.034Z,1013.49
2019-01-09T02:47:53.879Z,1013.49
2019-01-09T02:48:53.943Z,1013.36
2019-01-09T02:49:53.802Z,1013.48
2019-01-09T02:50:53.794Z,1013.47
2019-01-09T02:51:53.744Z,1013.47
2019-01-09T02:52:53.872Z,1013.54
2019-01-09T02:53:53.698Z,1013.52
2019-01-09T02:54:54.396Z,1013.49
2019-01-09T02:55:53.616Z,1013.46
2019-01-09T02:56:53.584Z,1013.47
2019-01-09T02:57:56.834Z,1013.50
2019-01-09T02:58:53.549Z,1013.51
2019-01-09T02:59:53.614Z,1013.49
2019-01-09T03:00:53.474Z,1013.44
2019-01-09T03:01:53.442Z,1013.53
2019-01-09T03:02:53.524Z,1013.43
2019-01-09T03:03:53.371Z,1013.46
2019-01-09T03:04:53.543Z,1013.60
2019-01-09T03:05:53.312Z,1013.53
2019-01-09T03:06:53.453Z,1013.53
2019-01-09T03:07:53.254Z,1013.47
2019-01-09T03:08:54.396Z,1013.43
2019-01-09T03:09:53.224Z,1013.50
2019-01-09T03:10:53.384Z,1013.51
2019-01-09T03:11:53.146Z,1013.58
2019-01-09T03:12:53.116Z,1013.37
2019-01-09T03:13:53.114Z,1013.59
2019-01-09T03:14:53.064Z,1013.70
2019-01-09T03:15:53.117Z,1013.61
2019-01-09T03:16:52.983Z,1013.59
2019-01-09T03:17:52.973Z,1013.60
2019-01-09T03:18:52.927Z,1013.61
2019-01-09T03:19:52.933Z,1013.65
2019-01-09T03:20:52.876Z,1013.64
2019-01-09T03:21:52.957Z,1013.54
2019-01-09T03:22:52.804Z,1013.60
2019-01-09T03:23:52.785Z,1013.60
2019-01-09T03:24:52.851Z,1013.58
2019-01-09T03:25:52.730Z,1013.51
2019-01-09T03:26:52.775Z,1013.56
2019-01-09T03:27:52.665Z,1013.57
2019-01-09T03:28:52.628Z,1013.54
2019-01-09T03:29:52.597Z,1013.53
2019-01-09T03:30:52.601Z,1013.51
2019-01-09T03:31:52.576Z,1013.54
2019-01-09T03:32:52.614Z,1013.51
2019-01-09T03:33:52.475Z,1013.50
2019-01-09T03:34:52.521Z,1013.52
2019-01-09T03:35:52.417Z,1013.59
2019-01-09T03:36:52.428Z,1013.54
2019-01-09T03:37:52.353Z,1013.53
2019-01-09T03:38:52.437Z,1013.56
2019-01-09T03:39:52.341Z,1013.51
2019-01-09T03:40:52.267Z,1013.57
2019-01-09T03:41:52.251Z,1013.50
2019-01-09T03:42:52.207Z,1013.59
2019-01-09T03:43:52.266Z,1013.56
2019-01-09T03:44:52.141Z,1013.57
2019-01-09T03:45:52.177Z,1013.53
2019-01-09T03:46:52.074Z,1013.45
2019-01-09T03:47:52.076Z,1013.53
2019-01-09T03:48:52.016Z,1013.54
2019-01-09T03:49:52.092Z,1013.55
2019-01-09T03:50:52.006Z,1013.54
2019-01-09T03:51:51.925Z,1013.47
2019-01-09T03:52:52.014Z,1013.48
2019-01-09T03:53:51.864Z,1013.47
2019-01-09T03:54:51.914Z,1013.48
2019-01-09T03:55:51.828Z,1013.41
2019-01-09T03:56:51.773Z,1013.49
2019-01-09T03:57:51.833Z,1013.45
2019-01-09T03:58:51.718Z,1013.45
2019-01-09T03:59:51.746Z,1013.39
2019-01-09T04:00:51.655Z,1013.48
2019-01-09T04:01:51.632Z,1013.48
2019-01-09T04:02:51.653Z,1013.46
2019-01-09T04:03:51.564Z,1013.52
2019-01-09T04:04:51.569Z,1013.48
2019-01-09T04:05:51.505Z,1013.45
2019-01-09T04:06:51.474Z,1013.48
2019-01-09T04:07:51.435Z,1013.47
2019-01-09T04:08:51.501Z,1013.44
2019-01-09T04:09:51.384Z,1013.48
2019-01-09T04:10:51.405Z,1013.48
2019-01-09T04:11:51.314Z,1013.40
2019-01-09T04:12:51.317Z,1013.46
2019-01-09T04:13:51.254Z,1013.50
2019-01-09T04:14:51.325Z,1013.47
2019-01-09T04:15:51.204Z,1013.48
2019-01-09T04:16:51.233Z,1013.51
2019-01-09T04:17:51.133Z,1013.46
2019-01-09T04:18:51.142Z,1013.44
2019-01-09T04:19:51.080Z,1013.41
2019-01-09T04:20:51.156Z,1013.40
2019-01-09T04:21:51.013Z,1013.47
2019-01-09T04:22:50.988Z,1013.44
2019-01-09T04:23:50.945Z,1013.43
2019-01-09T04:24:50.973Z,1013.43
2019-01-09T04:25:50.894Z,1013.45
2019-01-09T04:26:50.890Z,1013.41
2019-01-09T04:27:50.845Z,1013.39
2019-01-09T04:28:50.804Z,1013.38
2019-01-09T04:29:50.805Z,1013.40
2019-01-09T04:30:50.746Z,1013.43
2019-01-09T04:31:50.814Z,1013.42
2019-01-09T04:32:50.683Z,1013.36
2019-01-09T04:33:50.655Z,1013.37
2019-01-09T04:34:50.625Z,1013.35
2019-01-09T04:35:50.644Z,1013.28
2019-01-09T04:36:51.694Z,1013.35
2019-01-09T04:37:50.559Z,1013.26
2019-01-09T04:38:50.497Z,1013.34
2019-01-09T04:39:50.464Z,1013.27
2019-01-09T04:40:50.465Z,1013.31
2019-01-09T04:41:50.404Z,1013.22
2019-01-09T04:42:50.473Z,1013.24
2019-01-09T04:43:50.374Z,1013.23
2019-01-09T04:44:50.316Z,1013.23
2019-01-09T04:45:50.284Z,1013.26
2019-01-09T04:46:50.342Z,1013.22
2019-01-09T04:47:50.224Z,1013.22
2019-01-09T04:48:50.204Z,1013.24
2019-01-09T04:49:50.164Z,1013.27
2019-01-09T04:50:50.223Z,1013.22
2019-01-09T04:51:50.094Z,1013.27
2019-01-09T04:52:50.134Z,1013.29
2019-01-09T04:53:50.033Z,1013.32
2019-01-09T04:54:50.044Z,1013.26
2019-01-09T04:55:49.974Z,1013.32
2019-01-09T04:56:49.954Z,1013.32
2019-01-09T04:57:49.954Z,1013.24
2019-01-09T04:58:49.882Z,1013.25
2019-01-09T04:59:49.965Z,1013.25
2019-01-09T05:00:49.874Z,1013.26
2019-01-09T05:01:49.795Z,1013.36
2019-01-09T05:02:49.785Z,1013.33
2019-01-09T05:03:49.735Z,1013.33
2019-01-09T05:04:49.823Z,1013.36
2019-01-09T05:05:49.676Z,1013.30
2019-01-09T05:06:49.650Z,1013.29
2019-01-09T05:07:49.726Z,1013.32
2019-01-09T05:08:49.573Z,1013.29
2019-01-09T05:09:49.625Z,1013.32
2019-01-09T05:10:49.537Z,1013.38
2019-01-09T05:11:49.500Z,1013.35
2019-01-09T05:12:49.455Z,1013.34
2019-01-09T05:13:49.446Z,1013.33
2019-01-09T05:14:49.393Z,1013.33
2019-01-09T05:15:49.453Z,1013.33
2019-01-09T05:16:49.334Z,1013.34
2019-01-09T05:17:49.372Z,1013.34
2019-01-09T05:18:49.281Z,1013.35
2019-01-09T05:19:49.290Z,1013.33
2019-01-09T05:20:49.205Z,1013.35
2019-01-09T05:21:49.285Z,1013.37
2019-01-09T05:22:49.155Z,1013.33
2019-01-09T05:23:49.206Z,1013.33
2019-01-09T05:24:49.094Z,1013.34
2019-01-09T05:25:49.104Z,1013.40
2019-01-09T05:26:49.037Z,1013.37
2019-01-09T05:27:48.996Z,1013.44
2019-01-09T05:28:48.971Z,1013.33
2019-01-09T05:29:49.036Z,1013.33
2019-01-09T05:30:48.904Z,1013.30
2019-01-09T05:31:48.945Z,1013.32
2019-01-09T05:32:48.844Z,1013.27
2019-01-09T05:33:48.810Z,1013.34
2019-01-09T05:34:48.853Z,1013.30
2019-01-09T05:35:48.756Z,1013.28
2019-01-09T05:36:48.763Z,1013.34
2019-01-09T05:37:48.684Z,1013.29
2019-01-09T05:38:48.665Z,1013.32
2019-01-09T05:39:48.630Z,1013.33
2019-01-09T05:40:48.687Z,1013.32
2019-01-09T05:41:48.572Z,1013.28
2019-01-09T05:42:48.617Z,1013.37
2019-01-09T05:43:48.503Z,1013.38
2019-01-09T05:44:48.475Z,1013.34
2019-01-09T05:45:49.545Z,1013.36
2019-01-09T05:46:48.418Z,1013.36
2019-01-09T05:47:48.426Z,1013.40
2019-01-09T05:48:48.360Z,1013.45
2019-01-09T05:49:48.315Z,1013.44
2019-01-09T05:50:48.284Z,1013.37
2019-01-09T05:51:48.344Z,1013.32
2019-01-09T05:52:48.228Z,1013.35
2019-01-09T05:53:48.253Z,1013.34
2019-01-09T05:54:48.175Z,1013.42
2019-01-09T05:55:48.174Z,1013.39
2019-01-09T05:56:48.109Z,1013.36
2019-01-09T05:57:48.183Z,1013.31
2019-01-09T05:58:48.064Z,1013.34
2019-01-09T05:59:48.093Z,1013.31
2019-01-09T06:00:47.978Z,1013.28
2019-01-09T06:01:48.015Z,1013.29
2019-01-09T06:02:47.917Z,1013.22
2019-01-09T06:03:47.915Z,1013.26
2019-01-09T06:04:47.868Z,1013.31
2019-01-09T06:05:47.824Z,1013.29
2019-01-09T06:06:47.793Z,1013.26
2019-01-09T06:07:47.835Z,1013.34
2019-01-09T06:08:47.758Z,1013.32
2019-01-09T06:09:47.743Z,1013.30
2019-01-09T06:10:47.675Z,1013.34
2019-01-09T06:11:47.644Z,1013.38
2019-01-09T06:12:47.665Z,1013.35
2019-01-09T06:13:47.573Z,1013.40
2019-01-09T06:14:47.574Z,1013.35
2019-01-09T06:15:47.527Z,1013.38
2019-01-09T06:16:47.484Z,1013.44
2019-01-09T06:17:47.466Z,1013.42
2019-01-09T06:18:47.493Z,1013.41
2019-01-09T06:19:47.393Z,1013.42
2019-01-09T06:20:47.407Z,1013.44
2019-01-09T06:21:47.335Z,1013.46
2019-01-09T06:22:47.416Z,1013.44
2019-01-09T06:23:47.280Z,1013.46
2019-01-09T06:24:47.325Z,1013.45
2019-01-09T06:25:47.205Z,1013.49
2019-01-09T06:26:47.303Z,1013.45
2019-01-09T06:27:47.158Z,1013.47
2019-01-09T06:28:47.115Z,1013.48
2019-01-09T06:29:47.157Z,1013.47
2019-01-09T06:30:47.056Z,1013.45
2019-01-09T06:31:47.069Z,1013.45
2019-01-09T06:32:46.994Z,1013.46
2019-01-09T06:33:47.095Z,1013.54
2019-01-09T06:34:46.938Z,1013.49
2019-01-09T06:35:46.983Z,1013.49
2019-01-09T06:36:46.867Z,1013.49
2019-01-09T06:37:46.897Z,1013.48
2019-01-09T06:38:46.923Z,1013.46
2019-01-09T06:39:46.774Z,1013.49
2019-01-09T06:40:46.818Z,1013.51
2019-01-09T06:41:46.715Z,1013.57
2019-01-09T06:42:46.723Z,1013.58
2019-01-09T06:43:46.726Z,1013.59
2019-01-09T06:44:46.626Z,1013.56
2019-01-09T06:45:46.648Z,1013.59
2019-01-09T06:46:46.576Z,1013.61
2019-01-09T06:47:46.547Z,1013.59
2019-01-09T06:48:46.495Z,1013.58
2019-01-09T06:49:46.465Z,1013.57
2019-01-09T06:50:46.466Z,1013.63
2019-01-09T06:51:46.405Z,1013.59
2019-01-09T06:52:46.478Z,1013.60
2019-01-09T06:53:46.381Z,1013.70
2019-01-09T06:54:46.349Z,1013.65
2019-01-09T06:55:46.290Z,1013.65
2019-01-09T06:56:46.306Z,1013.63
2019-01-09T06:57:46.213Z,1013.63
2019-01-09T06:58:46.207Z,1013.65
2019-01-09T06:59:46.154Z,1013.62
2019-01-09T07:00:46.223Z,1013.66
2019-01-09T07:01:46.104Z,1013.69
2019-01-09T07:02:46.136Z,1013.69
2019-01-09T07:03:46.034Z,1013.69
2019-01-09T07:04:46.045Z,1013.69
2019-01-09T07:05:46.057Z,1013.76
2019-01-09T07:06:45.944Z,1013.70
2019-01-09T07:07:45.955Z,1013.74
2019-01-09T07:08:45.890Z,1013.76
2019-01-09T07:09:45.872Z,1013.77
2019-01-09T07:10:45.829Z,1013.81
2019-01-09T07:11:45.885Z,1013.79
2019-01-09T07:12:45.755Z,1013.76
2019-01-09T07:13:45.798Z,1013.76
2019-01-09T07:14:45.704Z,1013.82
2019-01-09T07:15:45.705Z,1013.77
2019-01-09T07:16:45.637Z,1013.83
2019-01-09T07:17:45.713Z,1013.83
2019-01-09T07:18:45.575Z,1013.90
2019-01-09T07:19:45.623Z,1013.83
2019-01-09T07:20:45.512Z,1013.87
2019-01-09T07:21:45.971Z,1013.92
2019-01-09T07:22:45.453Z,1013.89
2019-01-09T07:23:45.456Z,1013.90
2019-01-09T07:24:45.395Z,1013.91
2019-01-09T07:25:45.462Z,1013.92
2019-01-09T07:26:45.323Z,1013.97
2019-01-09T07:27:45.295Z,1013.97
2019-01-09T07:28:45.379Z,1014.03
2019-01-09T07:29:45.254Z,1013.97
2019-01-09T07:30:45.290Z,1014.04
2019-01-09T07:31:45.191Z,1014.01
2019-01-09T07:32:45.143Z,1013.96
2019-01-09T07:33:45.205Z,1014.02
2019-01-09T07:34:45.105Z,1014.01
2019-01-09T07:35:45.114Z,1014.02
2019-01-09T07:36:45.024Z,1014.01
2019-01-09T07:37:45.593Z,1014.02
2019-01-09T07:38:44.952Z,1014.05
2019-01-09T07:39:45.032Z,1014.05
2019-01-09T07:40:44.892Z,1014.05
2019-01-09T07:41:44.944Z,1014.06
2019-01-09T07:42:44.833Z,1014.10
2019-01-09T07:43:44.806Z,1014.11
2019-01-09T07:44:44.862Z,1014.10
2019-01-09T07:45:44.744Z,1014.14
2019-01-09T07:46:44.786Z,1014.16
2019-01-09T07:47:44.684Z,1014.15
2019-01-09T07:48:44.652Z,1014.23
2019-01-09T07:49:44.622Z,1014.20
2019-01-09T07:50:44.710Z,1014.17
2019-01-09T07:51:44.575Z,1014.22
2019-01-09T07:52:44.605Z,1014.20
2019-01-09T07:53:44.585Z,1014.14
2019-01-09T07:54:44.464Z,1014.16
2019-01-09T07:55:44.523Z,1014.15
2019-01-09T07:56:44.401Z,1014.16
2019-01-09T07:57:44.448Z,1014.12
2019-01-09T07:58:44.343Z,1014.14
2019-01-09T07:59:44.391Z,1014.16
2019-01-09T08:00:44.283Z,1014.16
2019-01-09T08:01:44.353Z,1014.22
2019-01-09T08:02:51.572Z,1014.24
2019-01-09T08:04:48.302Z,1014.22
2019-01-09T08:05:48.204Z,1014.27
2019-01-09T08:07:54.250Z,1014.31
2019-01-09T08:08:52.118Z,1014.27
2019-01-09T08:09:52.192Z,1014.32
2019-01-09T08:10:52.062Z,1014.32
2019-01-09T08:11:52.184Z,1014.35
2019-01-09T08:12:51.983Z,1014.34
2019-01-09T08:13:52.000Z,1014.45
2019-01-09T08:14:52.018Z,1014.46
2019-01-09T08:15:51.893Z,1014.45
2019-01-09T08:16:51.862Z,1014.43
2019-01-09T08:17:51.943Z,1014.49
2019-01-09T08:18:51.803Z,1014.51
2019-01-09T08:19:51.842Z,1014.52
2019-01-09T08:20:51.742Z,1014.51
2019-01-09T08:21:51.753Z,1014.48
2019-01-09T08:22:51.682Z,1014.49
2019-01-09T08:23:51.767Z,1014.52
2019-01-09T08:24:51.624Z,1014.56
2019-01-09T08:25:51.671Z,1014.59
2019-01-09T08:26:51.573Z,1014.60
2019-01-09T08:27:51.595Z,1014.61
2019-01-09T08:28:51.501Z,1014.58
2019-01-09T08:29:51.494Z,1014.58
2019-01-09T08:30:51.450Z,1014.61
2019-01-09T08:31:51.411Z,1014.62
2019-01-09T08:32:51.412Z,1014.62
2019-01-09T08:33:51.352Z,1014.64
2019-01-09T08:34:51.422Z,1014.62
2019-01-09T08:35:51.292Z,1014.65
2019-01-09T08:36:51.254Z,1014.68
2019-01-09T08:37:51.223Z,1014.69
2019-01-09T08:38:51.261Z,1014.66
2019-01-09T08:39:51.164Z,1014.69
2019-01-09T08:40:51.161Z,1014.75
2019-01-09T08:41:51.102Z,1014.74
2019-01-09T08:42:51.073Z,1014.76
2019-01-09T08:43:51.073Z,1014.75
2019-01-09T08:44:51.011Z,1014.78
2019-01-09T08:45:51.082Z,1014.80
2019-01-09T08:46:50.953Z,1014.71
2019-01-09T08:47:50.978Z,1014.79
2019-01-09T08:48:50.891Z,1014.79
2019-01-09T08:49:50.901Z,1014.87
2019-01-09T08:50:50.832Z,1014.89
2019-01-09T08:51:50.812Z,1014.95
2019-01-09T08:52:50.775Z,1014.97
2019-01-09T08:53:50.823Z,1014.98
2019-01-09T08:54:50.982Z,1014.99
2019-01-09T08:55:50.723Z,1015.01
2019-01-09T08:56:50.644Z,1014.98
2019-01-09T08:57:50.641Z,1015.06
2019-01-09T08:58:50.654Z,1015.07
2019-01-09T08:59:50.552Z,1015.08
2019-01-09T09:00:50.562Z,1015.09
2019-01-09T09:01:50.492Z,1015.09
2019-01-09T09:02:50.573Z,1015.11
2019-01-09T09:03:50.443Z,1015.16
2019-01-09T09:04:50.433Z,1015.16
2019-01-09T09:05:50.392Z,1015.15
2019-01-09T09:06:50.342Z,1015.14
2019-01-09T09:07:50.403Z,1015.16
2019-01-09T09:08:50.284Z,1015.18
2019-01-09T09:09:50.252Z,1015.21
2019-01-09T09:10:50.237Z,1015.21
2019-01-09T09:11:50.222Z,1015.27
2019-01-09T09:12:50.163Z,1015.23
2019-01-09T09:13:51.154Z,1015.28
2019-01-09T09:14:50.102Z,1015.28
2019-01-09T09:15:50.073Z,1015.29
2019-01-09T09:16:50.152Z,1015.33
2019-01-09T09:17:50.012Z,1015.38
2019-01-09T09:18:50.062Z,1015.36
2019-01-09T09:19:49.953Z,1015.38
2019-01-09T09:20:49.923Z,1015.37
2019-01-09T09:21:49.892Z,1015.42
2019-01-09T09:22:49.883Z,1015.44
2019-01-09T09:23:49.922Z,1015.51
2019-01-09T09:24:49.893Z,1015.62
2019-01-09T09:25:49.775Z,1015.62
2019-01-09T09:26:49.754Z,1015.66
2019-01-09T09:27:49.811Z,1015.68
2019-01-09T09:28:49.691Z,1015.75
2019-01-09T09:29:49.724Z,1015.78
2019-01-09T09:30:49.633Z,1015.79
2019-01-09T09:31:49.606Z,1015.77
2019-01-09T09:32:49.583Z,1015.77
2019-01-09T09:33:49.642Z,1015.90
2019-01-09T09:34:49.531Z,1015.92
2019-01-09T09:35:49.564Z,1015.98
2019-01-09T09:36:49.483Z,1015.93
2019-01-09T09:37:49.485Z,1015.97
2019-01-09T09:38:49.437Z,1016.02
2019-01-09T09:39:49.472Z,1016.17
2019-01-09T09:40:49.382Z,1016.23
2019-01-09T09:41:49.396Z,1016.25
2019-01-09T09:42:49.405Z,1016.26
2019-01-09T09:43:49.327Z,1016.22
2019-01-09T09:44:49.412Z,1016.21
2019-01-09T09:45:49.276Z,1016.26
2019-01-09T09:46:49.322Z,1016.30
2019-01-09T09:47:49.234Z,1016.28
2019-01-09T09:48:49.231Z,1016.32
2019-01-09T09:49:49.183Z,1016.28
2019-01-09T09:50:49.245Z,1016.29
2019-01-09T09:51:49.146Z,1016.33
2019-01-09T09:52:49.153Z,1016.32
2019-01-09T09:53:49.114Z,1016.34
2019-01-09T09:54:49.170Z,1016.37
2019-01-09T09:55:49.071Z,1016.36
2019-01-09T09:56:49.072Z,1016.38
2019-01-09T09:57:49.039Z,1016.37
2019-01-09T09:58:49.022Z,1016.42
2019-01-09T09:59:49.006Z,1016.44
2019-01-09T10:00:49.094Z,1016.43
2019-01-09T10:01:48.974Z,1016.44
2019-01-09T10:02:49.003Z,1016.43
2019-01-09T10:03:48.939Z,1016.48
2019-01-09T10:04:48.934Z,1016.42
2019-01-09T10:05:48.925Z,1016.41
2019-01-09T10:06:48.882Z,1016.44
2019-01-09T10:07:48.943Z,1016.53
2019-01-09T10:08:48.857Z,1016.48
2019-01-09T10:09:48.843Z,1016.52
2019-01-09T10:10:48.822Z,1016.50
2019-01-09T10:11:48.853Z,1016.54
2019-01-09T10:12:48.798Z,1016.04
2019-01-09T10:13:48.872Z,1016.02
2019-01-09T10:14:48.765Z,1015.98
2019-01-09T10:15:48.815Z,1016.02
2019-01-09T10:16:48.745Z,1016.00
2019-01-09T10:17:48.792Z,1016.44
2019-01-09T10:18:48.710Z,1016.21
2019-01-09T10:19:48.702Z,1016.40
2019-01-09T10:20:48.664Z,1016.01
2019-01-09T10:21:48.712Z,1015.93
2019-01-09T10:22:48.634Z,1015.91
2019-01-09T10:23:48.633Z,1015.84
2019-01-09T10:24:48.609Z,1015.84
2019-01-09T10:25:48.581Z,1015.91
2019-01-09T10:26:48.562Z,1016.31
2019-01-09T10:27:48.663Z,1016.30
2019-01-09T10:28:48.523Z,1016.31
2019-01-09T10:29:48.573Z,1016.38
2019-01-09T10:30:48.482Z,1016.36
2019-01-09T10:31:48.475Z,1016.34
2019-01-09T10:32:48.483Z,1016.29
2019-01-09T10:33:48.443Z,1016.28
2019-01-09T10:34:48.483Z,1016.26
2019-01-09T10:35:48.406Z,1016.32
2019-01-09T10:36:48.383Z,1016.33
2019-01-09T10:37:48.365Z,1016.29
2019-01-09T10:38:48.418Z,1016.36
2019-01-09T10:39:48.334Z,1016.30
2019-01-09T10:40:48.422Z,1016.34
2019-01-09T10:41:48.302Z,1016.40
2019-01-09T10:42:48.332Z,1016.56
2019-01-09T10:43:48.275Z,1016.54
2019-01-09T10:44:48.355Z,1016.38
2019-01-09T10:45:48.242Z,1016.37
2019-01-09T10:46:48.262Z,1016.44
2019-01-09T10:47:48.213Z,1016.44
2019-01-09T10:48:48.284Z,1016.44
2019-01-09T10:49:48.184Z,1016.46
2019-01-09T10:50:48.285Z,1016.51
2019-01-09T10:51:48.161Z,1016.56
2019-01-09T10:52:48.145Z,1016.55
2019-01-09T10:53:48.132Z,1016.58
2019-01-09T10:54:48.204Z,1016.55
2019-01-09T10:55:48.112Z,1016.59
2019-01-09T10:56:48.124Z,1016.54
2019-01-09T10:57:48.081Z,1016.57
2019-01-09T10:58:48.088Z,1016.57
2019-01-09T10:59:48.143Z,1016.62
2019-01-09T11:00:48.046Z,1016.55
2019-01-09T11:01:48.048Z,1016.54
2019-01-09T11:02:48.024Z,1016.55
2019-01-09T11:03:48.066Z,1016.54
2019-01-09T11:04:47.997Z,1016.56
2019-01-09T11:05:48.075Z,1016.56
2019-01-09T11:06:47.984Z,1016.54
2019-01-09T11:07:48.094Z,1016.51
2019-01-09T11:08:47.953Z,1016.55
2019-01-09T11:09:47.941Z,1016.58
2019-01-09T11:10:47.934Z,1016.50
2019-01-09T11:11:48.001Z,1016.58
2019-01-09T11:12:47.904Z,1016.60
2019-01-09T11:13:47.923Z,1016.56
2019-01-09T11:14:47.883Z,1016.54
2019-01-09T11:15:47.877Z,1016.60
2019-01-09T11:16:47.932Z,1016.02
2019-01-09T11:17:47.842Z,1016.63
2019-01-09T11:18:47.953Z,1016.59
2019-01-09T11:19:47.822Z,1016.65
2019-01-09T11:20:47.824Z,1016.68
2019-01-09T11:21:47.791Z,1016.68
2019-01-09T11:22:47.872Z,1016.66
2019-01-09T11:23:47.774Z,1016.70
2019-01-09T11:24:47.782Z,1016.69
2019-01-09T11:25:47.754Z,1016.66
2019-01-09T11:26:47.742Z,1016.70
2019-01-09T11:27:47.814Z,1016.66
2019-01-09T11:28:47.726Z,1016.67
2019-01-09T11:29:47.812Z,1016.64
2019-01-09T11:30:47.692Z,1016.63
2019-01-09T11:31:47.695Z,1016.61
2019-01-09T11:32:47.675Z,1016.74
2019-01-09T11:33:47.737Z,1016.70
2019-01-09T11:34:47.644Z,1016.74
2019-01-09T11:35:47.764Z,1016.68
2019-01-09T11:36:47.624Z,1016.71
2019-01-09T11:37:47.613Z,1016.69
2019-01-09T11:38:55.440Z,1016.71
2019-01-09T11:39:47.596Z,1016.74
2019-01-09T11:40:47.671Z,1016.68
2019-01-09T11:41:47.575Z,1016.64
2019-01-09T11:42:47.602Z,1016.72
2019-01-09T11:43:47.555Z,1016.49
2019-01-09T11:44:47.622Z,1016.68
2019-01-09T11:45:47.522Z,1016.69
2019-01-09T11:46:47.623Z,1016.70
2019-01-09T11:47:47.510Z,1016.68
2019-01-09T11:48:47.483Z,1016.79
2019-01-09T11:49:47.472Z,1016.79
2019-01-09T11:50:47.533Z,1016.89
2019-01-09T11:51:47.469Z,1016.88
2019-01-09T11:52:47.550Z,1016.89
2019-01-09T11:53:47.423Z,1016.87
2019-01-09T11:54:47.463Z,1016.75
2019-01-09T11:55:47.403Z,1017.04
2019-01-09T11:56:47.475Z,1016.92
2019-01-09T11:57:47.381Z,1016.87
2019-01-09T11:58:47.485Z,1016.78
2019-01-09T11:59:47.383Z,1016.50
2019-01-09T12:00:47.344Z,1016.83
2019-01-09T12:01:47.403Z,1016.83
2019-01-09T12:02:47.344Z,1016.90
2019-01-09T12:03:47.412Z,1016.80
2019-01-09T12:04:47.309Z,1016.71
2019-01-09T12:05:47.282Z,1017.07
2019-01-09T12:06:47.331Z,1015.99
2019-01-09T12:07:47.262Z,1016.65